Time;durP1;ratioP1;P1;durP2;ratioP2;P2;SDS_P1;SDS_P2;PMS_P1;PMS_P2;Temp;Humidity;BMP_temperature;BMP_pressure;BME280_temperature;BME280_humidity;BME280_pressure;Samples;Min_cycle;Max_cycle;Signal;HPM_P1;HPM_P2
2021/07/14 00:01:46;;;;;;;0.85;0.73;;;19.60;99.90;;;;;;4975966;28;20225;-90
2021/07/14 00:04:12;;;;;;;0.60;0.60;;;19.70;99.90;;;;;;4986004;28;20195;-90
2021/07/14 00:06:38;;;;;;;0.40;0.40;;;19.70;99.90;;;;;;4989974;28;20716;-91
2021/07/14 00:09:09;;;;;;;1.70;0.73;;;19.70;99.90;;;;;;4987562;28;20290;-91
2021/07/14 00:11:45;;;;;;;1.67;0.70;;;19.70;99.90;;;;;;4987466;28;20199;-90
2021/07/14 00:14:34;;;;;;;0.50;0.50;;;19.80;99.90;;;;;;4974981;28;20211;-90
2021/07/14 00:17:18;;;;;;;0.77;0.75;;;19.90;99.90;;;;;;4986423;28;20191;-90
2021/07/14 00:22:32;;;;;;;0.50;0.50;;;19.90;99.90;;;;;;4984714;28;20696;-89
2021/07/14 00:24:59;;;;;;;0.98;0.75;;;19.90;99.90;;;;;;4969053;28;20196;-90
2021/07/14 00:27:25;;;;;;;0.40;0.40;;;19.90;99.90;;;;;;4969093;28;20217;-89
2021/07/14 00:29:56;;;;;;;0.38;0.30;;;19.90;99.90;;;;;;4969019;28;20191;-90
2021/07/14 00:32:23;;;;;;;0.95;0.82;;;19.90;99.90;;;;;;4985002;28;20725;-91
2021/07/14 00:34:49;;;;;;;1.27;0.68;;;19.80;99.90;;;;;;4985242;28;20199;-90
2021/07/14 00:37:17;;;;;;;1.25;0.75;;;19.80;99.90;;;;;;4983948;28;20701;-90
2021/07/14 00:39:48;;;;;;;0.50;0.50;;;19.70;99.90;;;;;;4988934;28;20202;-90
2021/07/14 00:42:14;;;;;;;1.45;1.23;;;19.70;99.90;;;;;;4986429;28;20313;-90
2021/07/14 00:44:40;;;;;;;0.73;0.68;;;19.60;99.90;;;;;;4999087;28;20801;-90
2021/07/14 00:47:06;;;;;;;0.68;0.68;;;19.50;99.90;;;;;;4987948;28;20662;-89
2021/07/14 00:49:35;;;;;;;0.57;0.57;;;19.50;99.90;;;;;;4986734;28;20293;-90
2021/07/14 00:52:01;;;;;;;6.70;1.08;;;19.50;99.90;;;;;;4985698;28;20191;-90
2021/07/14 00:54:27;;;;;;;1.20;1.05;;;19.40;99.90;;;;;;4987131;28;20590;-91
2021/07/14 00:56:52;;;;;;;0.82;0.77;;;19.40;99.90;;;;;;4992902;28;20601;-91
2021/07/14 00:59:18;;;;;;;1.52;0.95;;;19.30;99.90;;;;;;4989664;28;20208;-90
2021/07/14 01:01:46;;;;;;;1.85;1.02;;;19.30;99.90;;;;;;4985918;28;20612;-91
2021/07/14 01:04:29;;;;;;;1.20;0.68;;;19.30;99.90;;;;;;4988173;28;20210;-90
2021/07/14 01:07:07;;;;;;;48.08;1.52;;;19.30;99.90;;;;;;4989602;28;20234;-91
2021/07/14 01:09:45;;;;;;;1.23;0.85;;;19.30;99.90;;;;;;4974384;28;20210;-91
2021/07/14 01:12:19;;;;;;;0.40;0.40;;;19.30;99.90;;;;;;4987953;28;20206;-90
2021/07/14 01:14:54;;;;;;;1.27;0.57;;;19.30;99.90;;;;;;4982245;28;20729;-91
2021/07/14 01:17:24;;;;;;;0.45;0.45;;;19.30;99.90;;;;;;4986671;28;20558;-90
2021/07/14 01:20:18;;;;;;;0.68;0.60;;;19.30;99.90;;;;;;4985847;28;20217;-91
2021/07/14 01:22:52;;;;;;;1.00;0.57;;;19.20;99.90;;;;;;5006843;28;20753;-89
2021/07/14 01:25:40;;;;;;;0.43;0.43;;;19.20;99.90;;;;;;4986334;28;20203;-90
2021/07/14 01:28:07;;;;;;;0.75;0.75;;;19.20;99.90;;;;;;4982252;28;20724;-90
2021/07/14 01:30:33;;;;;;;0.50;0.38;;;19.10;99.90;;;;;;4986588;28;20210;-89
2021/07/14 01:33:01;;;;;;;0.55;0.55;;;19.10;99.90;;;;;;4986529;28;20191;-90
2021/07/14 01:35:32;;;;;;;0.70;0.70;;;19.00;99.90;;;;;;4984677;28;20206;-90
2021/07/14 01:37:59;;;;;;;2.78;1.25;;;19.00;99.90;;;;;;4986499;28;20306;-89
2021/07/14 01:40:26;;;;;;;1.58;0.95;;;19.10;99.90;;;;;;4982050;28;20245;-91
2021/07/14 01:42:56;;;;;;;2.00;1.23;;;19.20;99.90;;;;;;4989640;28;20202;-91
2021/07/14 01:45:30;;;;;;;0.98;0.93;;;19.20;99.90;;;;;;4976267;28;20211;-90
2021/07/14 01:48:00;;;;;;;1.52;1.13;;;19.20;99.90;;;;;;4999152;28;20204;-89
2021/07/14 01:50:29;;;;;;;3.10;1.23;;;19.30;99.90;;;;;;4995428;28;20262;-88
2021/07/14 01:52:55;;;;;;;1.60;1.13;;;19.30;99.90;;;;;;4986163;28;20195;-90
2021/07/14 01:55:23;;;;;;;2.67;1.77;;;19.30;99.90;;;;;;4986241;28;20326;-90
2021/07/14 01:57:54;;;;;;;2.67;1.40;;;19.30;99.90;;;;;;4983029;28;20232;-90
2021/07/14 02:00:20;;;;;;;1.20;0.60;;;19.30;99.90;;;;;;4982810;28;20202;-90
2021/07/14 02:02:54;;;;;;;0.88;0.88;;;19.30;99.90;;;;;;4983248;28;20214;-90
2021/07/14 02:05:21;;;;;;;0.80;0.77;;;19.40;99.90;;;;;;4987053;28;20238;-90
2021/07/14 02:07:47;;;;;;;0.98;0.73;;;19.40;99.90;;;;;;4979094;28;20194;-90
2021/07/14 02:10:13;;;;;;;3.40;1.83;;;19.40;99.90;;;;;;4987741;28;20198;-89
2021/07/14 02:12:43;;;;;;;0.98;0.90;;;19.50;99.90;;;;;;4983145;28;20230;-89
2021/07/14 02:15:10;;;;;;;0.50;0.50;;;19.40;99.90;;;;;;4982938;28;20194;-89
2021/07/14 02:17:47;;;;;;;0.60;0.60;;;19.40;99.90;;;;;;4985482;28;20205;-89
2021/07/14 02:20:16;;;;;;;2.05;1.10;;;19.50;99.90;;;;;;5001055;28;20337;-89
2021/07/14 02:22:41;;;;;;;0.68;0.68;;;19.50;99.90;;;;;;4988090;28;20313;-90
2021/07/14 02:25:08;;;;;;;3.47;0.68;;;19.50;99.90;;;;;;4986289;28;20354;-90
2021/07/14 02:27:35;;;;;;;1.65;0.82;;;19.40;99.90;;;;;;4986195;28;20202;-89
2021/07/14 02:30:00;;;;;;;0.65;0.63;;;19.40;99.90;;;;;;4986641;28;20199;-90
2021/07/14 02:32:26;;;;;;;0.38;0.38;;;19.40;99.90;;;;;;4989219;28;20195;-90
2021/07/14 02:34:54;;;;;;;1.48;1.38;;;19.40;99.90;;;;;;4986298;28;20205;-90
2021/07/14 02:37:37;;;;;;;0.70;0.70;;;19.40;99.90;;;;;;5002491;28;20231;-90
2021/07/14 02:40:04;;;;;;;1.40;1.05;;;19.40;99.90;;;;;;4999089;28;20649;-90
2021/07/14 02:42:32;;;;;;;0.95;0.88;;;19.30;99.90;;;;;;4988199;28;20649;-89
2021/07/14 02:45:04;;;;;;;1.25;1.00;;;19.30;99.90;;;;;;4984483;28;20192;-89
2021/07/14 02:47:38;;;;;;;0.80;0.80;;;19.30;99.90;;;;;;4983831;28;20630;-90
2021/07/14 02:50:16;;;;;;;10.32;0.93;;;19.30;99.90;;;;;;4980591;28;20568;-90
2021/07/14 02:52:47;;;;;;;0.75;0.73;;;19.20;99.90;;;;;;4985781;28;20777;-90
2021/07/14 02:55:17;;;;;;;0.57;0.57;;;19.30;99.90;;;;;;4980885;28;20318;-90
2021/07/14 02:57:45;;;;;;;0.95;0.52;;;19.20;99.90;;;;;;4981516;28;20210;-90
2021/07/14 03:00:12;;;;;;;0.63;0.63;;;19.20;99.90;;;;;;4999136;28;20677;-89
2021/07/14 03:02:40;;;;;;;0.80;0.65;;;19.20;99.90;;;;;;4981035;28;20712;-90
2021/07/14 03:05:06;;;;;;;0.98;0.60;;;19.10;99.90;;;;;;4982050;28;20277;-89
2021/07/14 03:07:33;;;;;;;3.03;1.67;;;19.10;99.90;;;;;;4982675;28;20568;-90
2021/07/14 03:10:00;;;;;;;0.80;0.80;;;19.10;99.90;;;;;;4986405;28;20191;-90
2021/07/14 03:12:26;;;;;;;0.45;0.45;;;19.10;99.90;;;;;;4984936;28;20599;-90
2021/07/14 03:14:57;;;;;;;1.30;0.88;;;19.10;99.90;;;;;;4982765;28;20202;-90
2021/07/14 03:17:26;;;;;;;0.70;0.70;;;19.00;99.90;;;;;;4985178;28;20235;-90
2021/07/14 03:19:52;;;;;;;3.45;1.15;;;19.00;99.90;;;;;;5003174;28;20204;-89
2021/07/14 03:22:21;;;;;;;2.53;0.80;;;18.90;99.90;;;;;;4984099;28;20295;-90
2021/07/14 03:24:48;;;;;;;0.43;0.43;;;19.00;99.90;;;;;;4966462;28;20206;-91
2021/07/14 03:27:15;;;;;;;0.93;0.85;;;19.00;99.90;;;;;;4979699;28;20203;-90
2021/07/14 03:29:43;;;;;;;0.68;0.68;;;19.10;99.90;;;;;;4983361;28;20195;-89
2021/07/14 03:32:10;;;;;;;1.08;1.02;;;19.10;99.90;;;;;;5000310;28;20190;-89
2021/07/14 03:34:37;;;;;;;1.02;0.70;;;19.20;99.90;;;;;;4984490;28;20211;-90
2021/07/14 03:37:06;;;;;;;0.38;0.38;;;19.30;99.90;;;;;;4985562;28;20226;-89
2021/07/14 03:39:37;;;;;;;0.95;0.60;;;19.30;99.90;;;;;;4984831;28;20226;-90
2021/07/14 03:42:10;;;;;;;0.98;0.55;;;19.40;99.90;;;;;;4979312;28;20211;-90
2021/07/14 03:44:38;;;;;;;0.93;0.82;;;19.50;99.90;;;;;;4985889;28;20237;-90
2021/07/14 03:47:04;;;;;;;1.52;1.05;;;19.50;99.90;;;;;;4995791;28;20183;-90
2021/07/14 03:49:32;;;;;;;0.43;0.43;;;19.60;99.90;;;;;;4987501;28;20775;-89
2021/07/14 03:51:59;;;;;;;0.30;0.30;;;19.60;99.90;;;;;;4980866;28;20199;-90
2021/07/14 03:54:28;;;;;;;0.57;0.50;;;19.70;99.90;;;;;;4978786;28;20286;-90
2021/07/14 03:56:55;;;;;;;2.38;1.17;;;19.70;99.90;;;;;;4998250;28;20257;-90
2021/07/14 03:59:22;;;;;;;0.85;0.55;;;19.70;99.90;;;;;;4980727;28;20195;-90
2021/07/14 04:01:48;;;;;;;0.65;0.65;;;19.80;99.90;;;;;;4997078;28;20268;-88
2021/07/14 04:04:14;;;;;;;1.50;1.17;;;19.80;99.90;;;;;;4979010;28;20218;-90
2021/07/14 04:06:47;;;;;;;0.90;0.85;;;19.80;99.90;;;;;;4982825;28;20206;-89
2021/07/14 04:09:26;;;;;;;1.48;0.95;;;19.90;99.90;;;;;;4979927;28;20195;-91
2021/07/14 04:11:54;;;;;;;0.75;0.73;;;19.90;99.90;;;;;;5001934;28;20278;-87
2021/07/14 04:14:19;;;;;;;0.88;0.60;;;19.90;99.90;;;;;;4986452;28;20685;-89
2021/07/14 04:16:45;;;;;;;1.23;0.93;;;20.10;99.90;;;;;;5006156;28;20221;-85
2021/07/14 04:19:11;;;;;;;0.40;0.40;;;20.20;99.90;;;;;;4987791;28;20560;-88
2021/07/14 04:21:37;;;;;;;1.88;1.17;;;20.20;99.90;;;;;;4985085;28;20203;-89
2021/07/14 04:24:04;;;;;;;1.13;0.80;;;20.30;99.90;;;;;;4990514;28;20293;-89
2021/07/14 04:26:30;;;;;;;1.17;0.93;;;20.40;99.90;;;;;;4985017;28;20190;-89
2021/07/14 04:28:55;;;;;;;2.45;1.20;;;20.50;99.90;;;;;;4986941;28;20203;-88
2021/07/14 04:31:21;;;;;;;1.38;0.80;;;20.50;99.90;;;;;;4983168;28;20225;-91
2021/07/14 04:33:47;;;;;;;1.58;1.13;;;20.60;99.90;;;;;;5002812;28;20198;-88
2021/07/14 04:36:13;;;;;;;1.67;0.93;;;20.60;99.90;;;;;;4983867;28;20246;-88
2021/07/14 04:38:39;;;;;;;1.25;0.80;;;20.60;99.90;;;;;;4971628;28;20254;-88
2021/07/14 04:41:07;;;;;;;0.50;0.50;;;20.60;99.90;;;;;;4988755;28;20630;-89
2021/07/14 04:43:33;;;;;;;0.47;0.43;;;20.80;99.90;;;;;;4977190;28;20196;-90
2021/07/14 04:45:59;;;;;;;0.52;0.52;;;20.90;99.90;;;;;;4971388;28;20195;-88
2021/07/14 04:48:28;;;;;;;0.98;0.88;;;21.00;99.90;;;;;;4972930;28;20202;-89
2021/07/14 04:50:53;;;;;;;0.65;0.52;;;21.10;99.90;;;;;;4972844;28;20258;-87
2021/07/14 04:53:19;;;;;;;2.00;1.35;;;21.30;99.90;;;;;;4986817;28;20685;-89
2021/07/14 04:55:45;;;;;;;1.40;1.20;;;21.30;99.90;;;;;;4989513;28;20206;-86
2021/07/14 04:58:11;;;;;;;1.23;0.85;;;21.30;99.90;;;;;;4984772;28;20257;-88
2021/07/14 05:00:37;;;;;;;1.85;0.63;;;21.40;99.90;;;;;;4968830;28;20199;-88
2021/07/14 05:03:03;;;;;;;1.13;0.90;;;21.50;99.90;;;;;;4976885;28;20215;-87
2021/07/14 05:05:29;;;;;;;0.70;0.70;;;21.60;99.90;;;;;;4996415;28;20673;-89
2021/07/14 05:07:55;;;;;;;1.05;1.00;;;21.80;99.90;;;;;;4977580;28;20201;-88
2021/07/14 05:10:23;;;;;;;2.58;0.77;;;22.00;99.90;;;;;;4975863;28;20211;-89
2021/07/14 05:12:49;;;;;;;2.97;1.35;;;22.20;99.90;;;;;;4974720;28;20221;-88
2021/07/14 05:15:15;;;;;;;1.25;0.70;;;22.50;99.90;;;;;;4990744;28;20204;-88
2021/07/14 05:17:40;;;;;;;1.00;0.80;;;22.70;99.90;;;;;;4989287;28;20202;-88
2021/07/14 05:20:08;;;;;;;2.00;1.00;;;22.90;99.90;;;;;;4991272;28;20661;-89
2021/07/14 05:22:34;;;;;;;1.33;1.00;;;23.00;99.90;;;;;;4990639;28;20685;-89
2021/07/14 05:25:00;;;;;;;1.95;1.13;;;23.10;99.90;;;;;;4975652;28;20230;-89
2021/07/14 05:27:26;;;;;;;0.63;0.60;;;23.20;99.90;;;;;;4991225;28;20229;-89
2021/07/14 05:29:52;;;;;;;0.95;0.90;;;23.20;99.90;;;;;;4986396;28;20591;-89
2021/07/14 05:32:18;;;;;;;0.98;0.85;;;23.00;99.90;;;;;;4972957;28;20262;-90
2021/07/14 05:34:44;;;;;;;0.68;0.40;;;23.00;99.90;;;;;;4976155;28;20199;-89
2021/07/14 05:37:10;;;;;;;1.27;0.85;;;22.90;99.90;;;;;;4990680;28;20251;-89
2021/07/14 05:39:36;;;;;;;2.22;0.80;;;22.80;99.90;;;;;;4990053;28;21340;-89
2021/07/14 05:42:08;;;;;;;0.57;0.57;;;22.70;99.90;;;;;;5009608;28;20643;-88
2021/07/14 05:44:34;;;;;;;0.45;0.45;;;22.60;99.90;;;;;;4990051;28;20234;-88
2021/07/14 05:46:59;;;;;;;1.98;0.57;;;22.60;99.90;;;;;;4991459;28;20241;-89
2021/07/14 05:49:25;;;;;;;0.70;0.60;;;22.60;99.90;;;;;;4991449;28;20283;-88
2021/07/14 05:51:51;;;;;;;1.10;0.80;;;22.50;99.90;;;;;;4991104;28;20559;-89
2021/07/14 05:54:17;;;;;;;1.17;0.45;;;22.40;99.90;;;;;;4986995;28;20673;-88
2021/07/14 05:56:43;;;;;;;0.55;0.50;;;22.50;99.90;;;;;;4989873;28;20285;-88
2021/07/14 05:59:09;;;;;;;0.40;0.40;;;22.60;99.90;;;;;;4990866;28;20213;-89
2021/07/14 06:01:37;;;;;;;3.28;0.90;;;22.70;99.90;;;;;;5008980;28;20688;-88
2021/07/14 06:04:03;;;;;;;1.20;0.93;;;22.80;99.90;;;;;;4989816;28;20205;-88
2021/07/14 06:06:29;;;;;;;0.43;0.43;;;22.80;99.90;;;;;;4991788;28;20289;-89
2021/07/14 06:08:55;;;;;;;0.47;0.47;;;22.80;99.90;;;;;;4990847;28;20274;-89
2021/07/14 06:11:21;;;;;;;0.50;0.50;;;22.90;99.90;;;;;;4990660;28;20294;-89
2021/07/14 06:13:46;;;;;;;1.45;0.63;;;22.90;99.90;;;;;;4990993;28;20282;-89
2021/07/14 06:16:12;;;;;;;2.28;1.27;;;22.80;99.90;;;;;;4991775;28;20199;-88
2021/07/14 06:18:38;;;;;;;0.65;0.65;;;22.60;99.90;;;;;;4990421;28;20203;-89
2021/07/14 06:21:04;;;;;;;1.27;1.00;;;22.50;99.90;;;;;;4991197;28;20788;-89
2021/07/14 06:23:30;;;;;;;0.73;0.73;;;22.40;99.90;;;;;;5008810;28;20195;-88
2021/07/14 06:25:56;;;;;;;0.50;0.50;;;22.40;99.90;;;;;;4990283;28;20191;-88
2021/07/14 06:28:22;;;;;;;0.82;0.63;;;22.30;99.90;;;;;;4990897;28;20203;-89
2021/07/14 06:30:49;;;;;;;0.40;0.40;;;22.20;99.90;;;;;;4987459;28;20190;-89
2021/07/14 06:33:15;;;;;;;1.73;0.77;;;22.20;99.90;;;;;;4989448;28;20228;-88
2021/07/14 06:35:40;;;;;;;2.72;0.80;;;22.20;99.90;;;;;;4989762;28;20195;-88
2021/07/14 06:38:06;;;;;;;1.90;0.88;;;22.20;99.90;;;;;;4987101;28;20194;-88
2021/07/14 06:40:34;;;;;;;1.05;0.88;;;22.30;99.90;;;;;;4988399;28;20553;-89
2021/07/14 06:43:01;;;;;;;1.02;0.80;;;22.30;99.90;;;;;;4990696;28;20211;-88
2021/07/14 06:45:27;;;;;;;1.17;0.82;;;22.30;99.90;;;;;;4989083;28;20281;-88
2021/07/14 06:47:54;;;;;;;0.65;0.60;;;22.20;99.90;;;;;;4988606;28;20539;-87
2021/07/14 06:50:20;;;;;;;0.73;0.60;;;22.20;99.90;;;;;;5004975;28;20291;-88
2021/07/14 06:52:46;;;;;;;2.80;0.95;;;22.20;99.90;;;;;;4989788;28;20285;-89
2021/07/14 06:55:12;;;;;;;1.50;0.70;;;22.30;99.90;;;;;;4990529;28;20257;-89
2021/07/14 06:57:39;;;;;;;1.83;1.30;;;22.40;99.90;;;;;;4989333;28;20203;-88
2021/07/14 07:00:08;;;;;;;1.20;0.90;;;22.60;99.90;;;;;;4988491;28;20285;-88
2021/07/14 07:02:33;;;;;;;1.05;1.02;;;22.80;99.90;;;;;;4989737;28;20778;-88
2021/07/14 07:04:59;;;;;;;1.45;0.60;;;23.00;99.90;;;;;;4989440;28;20228;-89
2021/07/14 07:07:25;;;;;;;1.42;1.15;;;23.30;99.90;;;;;;4989781;28;20223;-89
2021/07/14 07:09:52;;;;;;;0.55;0.52;;;23.50;99.90;;;;;;5006953;28;20452;-89
2021/07/14 07:12:21;;;;;;;0.88;0.88;;;23.70;99.90;;;;;;4990157;28;20756;-89
2021/07/14 07:14:47;;;;;;;0.93;0.80;;;24.00;99.90;;;;;;4988245;28;20198;-88
2021/07/14 07:17:13;;;;;;;0.82;0.45;;;24.10;99.90;;;;;;4988894;28;20201;-88
2021/07/14 07:19:38;;;;;;;0.80;0.70;;;24.20;99.90;;;;;;4989307;28;20356;-88
2021/07/14 07:22:04;;;;;;;2.88;1.70;;;24.30;99.90;;;;;;4988961;28;20213;-88
2021/07/14 07:24:31;;;;;;;2.28;1.02;;;24.30;99.90;;;;;;4989729;28;20670;-88
2021/07/14 07:26:57;;;;;;;1.90;0.88;;;24.50;99.90;;;;;;4989884;28;20199;-88
2021/07/14 07:29:23;;;;;;;1.13;1.00;;;24.70;99.90;;;;;;4989330;28;20737;-87
2021/07/14 07:31:49;;;;;;;3.08;1.50;;;24.90;99.90;;;;;;4989238;28;20305;-89
2021/07/14 07:34:15;;;;;;;1.60;1.00;;;25.10;99.90;;;;;;5003311;28;20229;-88
2021/07/14 07:36:41;;;;;;;1.15;0.73;;;25.30;99.90;;;;;;4988346;28;20245;-87
2021/07/14 07:39:07;;;;;;;0.47;0.47;;;25.50;99.90;;;;;;4987504;28;20188;-87
2021/07/14 07:41:34;;;;;;;1.58;0.93;;;25.70;99.90;;;;;;5006215;28;20694;-88
2021/07/14 07:43:59;;;;;;;1.45;0.88;;;26.00;99.90;;;;;;4988394;28;20533;-89
2021/07/14 07:46:25;;;;;;;1.20;1.10;;;26.20;99.90;;;;;;5004797;28;20197;-88
2021/07/14 07:48:51;;;;;;;1.20;0.73;;;26.40;99.90;;;;;;4988911;28;20613;-88
2021/07/14 07:51:17;;;;;;;1.13;0.52;;;26.40;99.90;;;;;;4986955;28;20661;-88
2021/07/14 07:53:43;;;;;;;1.15;0.73;;;26.40;99.90;;;;;;5007214;28;20206;-87
2021/07/14 07:56:09;;;;;;;1.38;1.15;;;26.40;99.90;;;;;;4988866;28;20233;-89
2021/07/14 07:58:36;;;;;;;4.30;1.83;;;26.30;99.90;;;;;;5006903;28;20210;-88
2021/07/14 08:01:02;;;;;;;3.65;1.30;;;26.40;99.90;;;;;;4988867;28;20862;-88
2021/07/14 08:03:28;;;;;;;1.40;0.70;;;26.20;99.90;;;;;;4985190;28;20191;-88
2021/07/14 08:05:54;;;;;;;0.50;0.50;;;26.00;99.90;;;;;;4987248;28;20197;-88
2021/07/14 08:08:20;;;;;;;3.45;2.00;;;26.10;99.90;;;;;;4989597;28;20206;-88
2021/07/14 08:10:47;;;;;;;0.98;0.55;;;26.10;99.90;;;;;;4985893;28;20285;-87
2021/07/14 08:13:15;;;;;;;3.25;1.70;;;26.10;99.90;;;;;;4988951;28;20696;-89
2021/07/14 08:33:20;;;;;;;0.52;0.45;;;26.70;99.90;;;;;;4992331;28;20201;-89
2021/07/14 08:42:36;;;;;;;1.55;1.05;;;27.00;99.90;;;;;;4988163;28;20280;-88
2021/07/14 08:45:05;;;;;;;1.85;0.68;;;27.40;99.90;;;;;;4989915;28;20214;-87
2021/07/14 08:47:31;;;;;;;2.10;0.90;;;27.50;99.90;;;;;;4986585;28;20199;-88
2021/07/14 08:49:58;;;;;;;0.88;0.88;;;28.00;99.90;;;;;;4987855;28;20198;-89
2021/07/14 08:52:24;;;;;;;1.63;1.05;;;28.40;99.90;;;;;;4988532;28;20194;-89
2021/07/14 08:54:50;;;;;;;1.75;0.90;;;28.70;99.90;;;;;;5005712;28;20209;-89
2021/07/14 08:57:17;;;;;;;1.42;1.17;;;28.70;99.90;;;;;;4992895;28;20546;-89
2021/07/14 09:02:18;;;;;;;1.00;0.75;;;29.10;99.90;;;;;;5373815;22;20242;-77
2021/07/14 09:04:44;;;;;;;0.82;0.75;;;29.40;99.90;;;;;;5039263;22;20246;-87
2021/07/14 09:07:10;;;;;;;1.38;1.27;;;29.60;99.90;;;;;;5022821;28;20639;-87
2021/07/14 09:09:37;;;;;;;2.35;1.02;;;29.50;99.90;;;;;;5009395;28;20293;-87
2021/07/14 09:12:10;;;;;;;5.55;1.23;;;29.40;99.90;;;;;;5010044;28;20217;-84
2021/07/14 09:14:40;;;;;;;1.02;0.77;;;29.20;99.90;;;;;;5006809;28;20206;-85
2021/07/14 09:17:25;;;;;;;2.35;1.20;;;29.30;99.90;;;;;;5008786;28;20217;-85
2021/07/14 09:20:09;;;;;;;1.65;0.75;;;29.80;99.90;;;;;;5000931;28;20622;-85
2021/07/14 09:22:34;;;;;;;5.13;1.52;;;30.10;99.90;;;;;;5016337;28;20218;-85
2021/07/14 09:25:12;;;;;;;0.40;0.40;;;30.10;99.90;;;;;;5008763;28;20569;-85
2021/07/14 09:27:37;;;;;;;0.63;0.38;;;30.10;99.90;;;;;;5005729;28;20277;-85
2021/07/14 09:30:11;;;;;;;1.33;1.13;;;30.40;99.90;;;;;;5007374;28;20281;-84
2021/07/14 09:33:07;;;;;;;3.15;1.35;;;30.40;99.90;;;;;;5006696;28;20207;-84
2021/07/14 09:35:47;;;;;;;3.33;1.40;;;30.60;99.90;;;;;;4993143;28;20225;-84
2021/07/14 09:38:20;;;;;;;1.95;1.50;;;30.80;99.90;;;;;;5007288;28;20598;-85
2021/07/14 09:41:07;;;;;;;1.13;0.93;;;30.90;99.90;;;;;;5007885;28;20248;-84
2021/07/14 09:43:34;;;;;;;1.15;0.90;;;31.20;99.90;;;;;;5007610;28;20194;-83
2021/07/14 09:46:04;;;;;;;5.63;2.10;;;31.60;99.90;;;;;;5007160;28;20201;-84
2021/07/14 09:48:38;;;;;;;4.28;0.80;;;31.80;99.90;;;;;;5002091;28;20560;-85
2021/07/14 09:51:22;;;;;;;1.45;1.00;;;31.60;99.90;;;;;;5008097;28;20277;-85
2021/07/14 09:53:50;;;;;;;3.53;0.90;;;31.20;99.90;;;;;;5005898;28;20525;-84
2021/07/14 09:56:27;;;;;;;0.82;0.80;;;31.60;99.90;;;;;;5010065;28;20221;-84
2021/07/14 09:59:12;;;;;;;1.80;1.02;;;31.90;99.90;;;;;;5005341;28;20194;-85
2021/07/14 10:01:43;;;;;;;0.40;0.30;;;31.90;99.90;;;;;;4999433;28;20301;-84
2021/07/14 10:04:30;;;;;;;0.73;0.70;;;31.80;99.90;;;;;;4998815;28;20291;-84
2021/07/14 10:07:23;;;;;;;2.50;0.90;;;31.50;99.90;;;;;;4999132;28;20201;-85
2021/07/14 10:09:49;;;;;;;21.02;0.68;;;31.60;99.90;;;;;;4992577;28;20214;-84
2021/07/14 10:12:30;;;;;;;1.00;0.90;;;31.60;99.90;;;;;;4992997;28;20285;-84
2021/07/14 10:15:18;;;;;;;3.33;1.17;;;31.60;99.90;;;;;;5002075;28;20222;-84
2021/07/14 10:17:48;;;;;;;3.25;1.38;;;31.50;99.90;;;;;;5001193;28;20218;-84
2021/07/14 10:20:30;;;;;;;1.33;0.82;;;31.70;99.90;;;;;;4998093;28;20508;-84
2021/07/14 10:23:05;;;;;;;0.63;0.63;;;32.10;99.90;;;;;;4993124;28;20206;-84
2021/07/14 10:25:33;;;;;;;0.35;0.30;;;32.10;99.90;;;;;;4992155;28;20739;-84
2021/07/14 10:28:01;;;;;;;2.08;1.40;;;32.00;99.90;;;;;;5000584;28;20194;-84
2021/07/14 10:30:28;;;;;;;0.90;0.77;;;32.00;99.90;;;;;;5008314;28;20775;-84
2021/07/14 10:32:55;;;;;;;1.60;1.13;;;32.20;99.90;;;;;;4991316;28;20253;-84
2021/07/14 10:35:35;;;;;;;1.20;1.05;;;32.70;99.90;;;;;;5002444;28;20207;-84
2021/07/14 10:38:03;;;;;;;0.60;0.60;;;33.00;99.90;;;;;;4990104;28;20260;-84
2021/07/14 10:40:30;;;;;;;1.27;0.93;;;33.00;99.90;;;;;;4997181;28;20249;-85
2021/07/14 10:42:56;;;;;;;0.45;0.45;;;32.90;99.90;;;;;;4988793;28;20221;-84
2021/07/14 10:45:23;;;;;;;1.80;1.13;;;32.80;99.90;;;;;;4992908;28;20202;-84
2021/07/14 10:47:50;;;;;;;0.57;0.50;;;33.10;99.90;;;;;;4999120;28;20294;-84
2021/07/14 10:50:19;;;;;;;1.33;1.05;;;33.10;99.90;;;;;;5002790;28;20217;-84
2021/07/14 10:52:45;;;;;;;1.23;0.82;;;32.70;99.90;;;;;;5004664;28;20314;-84
2021/07/14 10:55:23;;;;;;;1.08;0.98;;;32.80;99.90;;;;;;4999857;28;20281;-83
2021/07/14 10:57:51;;;;;;;1.67;0.98;;;32.80;99.90;;;;;;4995134;28;20214;-84
2021/07/14 11:00:17;;;;;;;1.90;1.35;;;32.30;99.90;;;;;;5009184;28;20195;-84
2021/07/14 11:02:51;;;;;;;2.55;1.45;;;32.20;99.90;;;;;;4995212;28;20261;-84
2021/07/14 11:05:51;;;;;;;0.68;0.60;;;31.60;99.90;;;;;;4997375;28;20585;-84
2021/07/14 11:08:42;;;;;;;1.17;0.70;;;31.60;99.90;;;;;;4990340;28;20206;-84
2021/07/14 11:11:10;;;;;;;2.30;1.35;;;31.90;99.90;;;;;;4994931;28;20206;-84
2021/07/14 11:13:37;;;;;;;2.45;1.40;;;32.10;99.90;;;;;;4993270;28;20333;-84
2021/07/14 11:16:21;;;;;;;1.30;1.13;;;32.30;99.90;;;;;;4998032;28;20186;-84
2021/07/14 11:19:11;;;;;;;1.92;1.08;;;32.80;99.90;;;;;;4993652;28;20281;-84
2021/07/14 11:21:54;;;;;;;1.75;0.90;;;33.20;99.90;;;;;;4992836;28;20648;-84
2021/07/14 11:24:49;;;;;;;0.77;0.73;;;33.80;99.90;;;;;;4993824;28;20191;-84
2021/07/14 11:27:27;;;;;;;1.48;1.23;;;34.00;99.90;;;;;;4996970;28;20213;-84
2021/07/14 11:30:02;;;;;;;2.25;1.25;;;33.10;99.90;;;;;;5001672;28;20194;-85
2021/07/14 11:32:33;;;;;;;1.05;0.95;;;32.90;99.90;;;;;;4992997;28;20290;-84
2021/07/14 11:35:06;;;;;;;1.35;1.13;;;32.90;99.90;;;;;;4997901;28;20198;-85
2021/07/14 11:37:37;;;;;;;0.80;0.80;;;32.80;99.90;;;;;;4996506;28;20273;-83
2021/07/14 11:40:18;;;;;;;2.20;1.20;;;33.10;99.90;;;;;;4993358;28;20247;-84
2021/07/14 11:42:58;;;;;;;1.23;0.82;;;32.90;99.90;;;;;;4988871;28;20203;-84
2021/07/14 11:45:33;;;;;;;1.05;0.60;;;32.40;99.90;;;;;;4989963;28;20742;-84
2021/07/14 11:48:05;;;;;;;1.40;1.08;;;32.10;99.90;;;;;;4998356;28;20260;-84
2021/07/14 11:50:46;;;;;;;3.85;1.23;;;32.10;99.90;;;;;;4988080;28;20207;-84
2021/07/14 11:53:38;;;;;;;1.92;1.63;;;32.30;99.90;;;;;;4995392;28;20206;-84
2021/07/14 11:56:32;;;;;;;0.55;0.55;;;32.00;99.90;;;;;;4993434;28;20676;-84
2021/07/14 11:59:28;;;;;;;0.68;0.68;;;32.40;99.90;;;;;;4989611;28;20739;-84
2021/07/14 12:01:59;;;;;;;2.80;1.10;;;33.00;99.90;;;;;;4999705;28;20591;-84
2021/07/14 12:04:26;;;;;;;1.63;0.82;;;33.60;99.90;;;;;;4987891;28;20652;-84
2021/07/14 12:06:52;;;;;;;1.48;0.95;;;34.30;99.90;;;;;;4992661;28;20290;-84
2021/07/14 12:09:18;;;;;;;1.75;1.10;;;34.60;98.60;;;;;;4994628;28;20198;-84
2021/07/14 12:11:43;;;;;;;3.78;0.70;;;35.10;99.80;;;;;;4987560;28;20559;-84
2021/07/14 12:14:36;;;;;;;1.35;1.15;;;35.70;97.00;;;;;;4998286;28;20198;-84
2021/07/14 12:17:05;;;;;;;1.63;1.45;;;36.10;94.20;;;;;;5000380;28;20205;-85
2021/07/14 12:19:43;;;;;;;0.82;0.82;;;35.80;93.40;;;;;;4995246;28;20194;-84
2021/07/14 12:22:13;;;;;;;2.20;1.10;;;35.40;93.50;;;;;;4996418;28;20700;-84
2021/07/14 12:24:53;;;;;;;2.38;1.13;;;35.50;94.30;;;;;;4987744;28;20490;-83
2021/07/14 12:27:29;;;;;;;1.00;0.85;;;35.10;91.50;;;;;;4994286;28;20210;-84
2021/07/14 12:30:00;;;;;;;1.13;0.90;;;35.20;91.80;;;;;;4991206;28;20195;-84
2021/07/14 12:32:42;;;;;;;1.35;0.95;;;35.00;92.90;;;;;;5012916;28;20643;-84
2021/07/14 12:35:22;;;;;;;1.42;1.05;;;35.50;94.70;;;;;;4992330;28;20205;-84
2021/07/14 12:37:54;;;;;;;18.70;1.40;;;35.60;91.10;;;;;;4996880;28;20194;-84
2021/07/14 12:40:29;;;;;;;0.50;0.50;;;35.60;90.50;;;;;;5018903;28;20202;-85
2021/07/14 12:42:58;;;;;;;1.48;1.05;;;35.10;89.60;;;;;;5005918;28;20249;-84
2021/07/14 12:45:28;;;;;;;0.93;0.80;;;35.20;91.50;;;;;;4992969;28;20217;-84
2021/07/14 12:47:54;;;;;;;1.75;1.40;;;35.40;91.80;;;;;;4994090;28;20206;-84
2021/07/14 12:50:22;;;;;;;0.90;0.90;;;35.30;91.10;;;;;;4997025;28;20561;-84
2021/07/14 12:52:53;;;;;;;1.40;0.80;;;35.60;91.90;;;;;;5000308;28;20206;-85
2021/07/14 12:55:20;;;;;;;1.40;0.80;;;35.50;90.70;;;;;;4997797;28;20264;-85
2021/07/14 12:57:47;;;;;;;1.00;0.80;;;35.70;91.50;;;;;;5002463;28;20202;-84
2021/07/14 13:00:13;;;;;;;3.13;0.85;;;35.30;90.80;;;;;;4998944;28;20647;-85
2021/07/14 13:02:51;;;;;;;1.45;0.95;;;35.30;91.50;;;;;;5007722;28;20201;-86
2021/07/14 13:05:19;;;;;;;1.55;1.13;;;34.70;91.30;;;;;;5000251;28;20213;-85
2021/07/14 13:08:14;;;;;;;0.63;0.63;;;34.50;92.00;;;;;;5001087;28;20194;-86
2021/07/14 13:10:41;;;;;;;1.95;1.00;;;34.90;94.10;;;;;;4998051;28;20211;-86
2021/07/14 13:13:12;;;;;;;0.85;0.85;;;35.00;90.60;;;;;;5000697;28;20701;-86
2021/07/14 13:15:39;;;;;;;1.23;1.08;;;35.10;92.00;;;;;;4999389;28;20191;-86
2021/07/14 13:18:15;;;;;;;1.40;0.93;;;35.50;92.40;;;;;;5000651;28;20187;-83
2021/07/14 13:20:47;;;;;;;3.92;0.90;;;35.40;90.90;;;;;;4994104;28;20202;-83
2021/07/14 13:23:14;;;;;;;2.00;1.05;;;34.80;91.00;;;;;;5006883;28;20550;-84
2021/07/14 13:25:44;;;;;;;0.20;0.20;;;34.60;91.90;;;;;;4994783;28;20221;-84
2021/07/14 13:28:21;;;;;;;1.48;1.00;;;34.70;91.30;;;;;;5003887;28;20202;-84
2021/07/14 13:30:54;;;;;;;3.63;1.05;;;35.20;91.00;;;;;;4996375;28;20783;-84